Strona główna
METAR-TAF:

METAR-TAF

Lotnisko :

Port lotniczy Pardubice

Pardubice, Czechy

Szerokość geograficzna: 50-00-48N, Długość geograficzna: 15-44-19E, wysokość: 226 m

Aktualna obserwacja pogody

Raport powstał 1 godzina i 8 minut temu, godzina 21:00 UTC
Cisza
Temperatura 9°C
Wilgotność 87%
Ciśnienie 1021 hPa
Widzialność 10 km lub więcej
Brak chmur poniżej 1500 m i brak chmur cumulonimbus

METAR: LKPD 182100Z 00000KT CAVOK 09/07 Q1021 RMK BLACK

czas: 00:08 (22:08 UTC)


TAF: brakujący

Obserwacja i prognoza pogody dla ponad 4000 lotnisk (raport METAR i TAF).

Dostępne stacje oznaczono żółtymi i czerwonymi punktami na mapie.

Najedź kursorem aby zobaczyć nazwę stacji.

Kliknij aby zobaczyć obserwacje i prognozy pogody.

Aby zmienić mapę: kliknij na zielony przycisk z czarnym krzyżykiem, aby powiększyć; na zielony przycisk z myślnikiem, aby pomniejszyć; na zielone strzałki, aby przejść do map sąsiednich.


METAR-TAF: